Davison Army Air Field
KDAA : now visible

Airfield :











YOU CAN JOIN US ON...

 
LOGIN :

Register | Disclaimer

   EN    FR    IT 

 









Legend :    VFR   Marginal VFR   IFR   Intensive IFR   Very Intensive IFR
Visi :
Ceiling :
>= 8 km
>= 3000ft
5 to 8 km
1000 to 3000 ft
1500m to 5 km
500 to 1000 ft
800 to 1500m
200 to 500 ft
< 800m
< 200 ft
Symbols :   Thunderstorms  Fog  Heavy snow  Heavy precipitations  Wind > 20 kt






- Airport Elevation : 73 ft


KDAA - Davison Army Air Field

CURRENT METAR :
  • 190956Z AUTO 00000KT 10SM CLR 20/20 A3012 RMK AO2 SLP202 T01980195 $

EXPIRED METARs :
  • 190856Z AUTO 00000KT 6SM BR CLR 20/19 A3010 RMK AO2 SLP195 T01950192 53003 $
  • 190836Z AUTO 00000KT 4SM BR CLR 20/19 A3009 RMK AO2 SLP192 $
  • 190831Z AUTO 00000KT 1 7/8SM BR CLR 20/19 A3009 RMK AO2 VIS 1 7/8V4 SLP192 $
  • 190756Z AUTO 00000KT 5SM BR CLR 20/19 A3008 RMK AO2 SLP188 T01960193 $
  • 190656Z AUTO 00000KT 8SM CLR 20/20 A3009 RMK AO2 SLP192 T02030200 $

Expired Forecast.
KZDC FIR / North America



MET'MAP, your aeronautical weather chart ! - Copyright ORBIFLY December 2007 - Disclaimer

ORBIFLY MET'MAP TEAM :

Programming & Development : Alexandra Zaïnal
Concept & original design : Baudouin d'Aumeries
Assistance for programming : Marc-Olivier Méhu
Technical & hardware support : Manuel Goepfert

Contact : metmap@orbifly.com




SOURCES & CREDITS :

   NOAA       Earth
Advisory